createdAt,value
2018-08-16T00:00:29.157Z,69.20
2018-08-16T00:01:32.748Z,69.30
2018-08-16T00:02:36.127Z,69.30
2018-08-16T00:03:39.527Z,70.10
2018-08-16T00:04:43.027Z,69.40
2018-08-16T00:05:46.540Z,69.40
2018-08-16T00:06:50.028Z,69.40
2018-08-16T00:07:53.725Z,69.40
2018-08-16T00:08:57.330Z,69.20
2018-08-16T00:10:00.764Z,69.30
2018-08-16T00:11:04.281Z,69.50
2018-08-16T00:12:07.654Z,69.50
2018-08-16T00:13:11.119Z,69.40
2018-08-16T00:14:14.643Z,69.50
2018-08-16T00:15:19.519Z,69.50
2018-08-16T00:16:23.141Z,69.40
2018-08-16T00:17:26.509Z,69.50
2018-08-16T00:18:30.029Z,69.60
2018-08-16T00:19:33.403Z,69.60
2018-08-16T00:20:36.779Z,69.80
2018-08-16T00:21:40.244Z,69.90
2018-08-16T00:22:44.016Z,69.90
2018-08-16T00:23:47.639Z,69.80
2018-08-16T00:24:51.111Z,69.90
2018-08-16T00:25:54.715Z,69.90
2018-08-16T00:26:58.453Z,70.10
2018-08-16T00:28:02.105Z,70.10
2018-08-16T00:29:05.506Z,70.10
2018-08-16T00:30:16.188Z,70.20
2018-08-16T00:31:19.615Z,70.20
2018-08-16T00:32:22.956Z,70.30
2018-08-16T00:33:26.428Z,70.20
2018-08-16T00:34:29.876Z,70.10
2018-08-16T00:35:33.504Z,70.20
2018-08-16T00:36:36.956Z,70.30
2018-08-16T00:37:41.011Z,70.50
2018-08-16T00:38:44.438Z,70.50
2018-08-16T00:39:47.950Z,70.40
2018-08-16T00:40:51.324Z,70.40
2018-08-16T00:41:55.022Z,70.50
2018-08-16T00:42:58.637Z,70.60
2018-08-16T00:44:02.192Z,70.60
2018-08-16T00:45:07.772Z,70.40
2018-08-16T00:46:11.494Z,69.50
2018-08-16T00:47:15.225Z,69.90
2018-08-16T00:48:18.878Z,70.00
2018-08-16T00:49:22.459Z,70.00
2018-08-16T00:50:25.966Z,69.80
2018-08-16T00:51:35.996Z,69.50
2018-08-16T00:52:39.446Z,69.30
2018-08-16T00:53:42.896Z,69.00
2018-08-16T00:54:46.565Z,68.90
2018-08-16T00:55:50.072Z,68.90
2018-08-16T00:56:53.672Z,68.90
2018-08-16T00:57:57.194Z,68.70
2018-08-16T00:59:00.615Z,68.40
2018-08-16T01:00:05.682Z,68.30
2018-08-16T01:01:09.340Z,68.20
2018-08-16T01:02:12.820Z,68.10
2018-08-16T01:03:16.271Z,67.90
2018-08-16T01:04:19.616Z,67.80
2018-08-16T01:05:23.168Z,67.70
2018-08-16T01:06:26.955Z,67.50
2018-08-16T01:07:30.668Z,67.50
2018-08-16T01:08:34.374Z,67.50
2018-08-16T01:09:37.938Z,67.40
2018-08-16T01:10:41.456Z,67.30
2018-08-16T01:11:44.982Z,67.20
2018-08-16T01:12:48.456Z,67.30
2018-08-16T01:13:52.260Z,67.30
2018-08-16T01:14:56.081Z,67.20
2018-08-16T01:15:59.747Z,67.00
2018-08-16T01:17:03.358Z,66.80
2018-08-16T01:18:06.988Z,66.80
2018-08-16T01:19:10.602Z,67.00
2018-08-16T01:20:14.353Z,67.00
2018-08-16T01:21:17.815Z,66.90
2018-08-16T01:22:21.274Z,66.80
2018-08-16T01:23:24.711Z,66.70
2018-08-16T01:24:28.535Z,66.80
2018-08-16T01:25:32.190Z,66.80
2018-08-16T01:26:35.914Z,66.90
2018-08-16T01:27:39.489Z,66.90
2018-08-16T01:28:42.946Z,66.90
2018-08-16T01:29:46.335Z,66.80
2018-08-16T01:30:50.028Z,67.10
2018-08-16T01:31:53.519Z,67.00
2018-08-16T01:32:57.042Z,67.10
2018-08-16T01:34:00.601Z,66.90
2018-08-16T01:35:05.624Z,66.90
2018-08-16T01:36:09.218Z,66.90
2018-08-16T01:37:12.678Z,66.90
2018-08-16T01:38:16.000Z,66.80
2018-08-16T01:39:19.648Z,67.00
2018-08-16T01:40:23.205Z,66.90
2018-08-16T01:41:26.674Z,66.90
2018-08-16T01:42:30.559Z,66.70
2018-08-16T01:43:34.073Z,66.70
2018-08-16T01:44:37.475Z,66.70
2018-08-16T01:45:41.056Z,66.70
2018-08-16T01:46:44.643Z,66.60
2018-08-16T01:47:47.983Z,66.70
2018-08-16T01:48:51.517Z,66.80
2018-08-16T01:49:54.933Z,66.70
2018-08-16T01:50:58.573Z,66.90
2018-08-16T01:52:02.299Z,66.90
2018-08-16T01:53:06.324Z,66.80
2018-08-16T01:54:09.786Z,66.80
2018-08-16T01:55:13.118Z,67.50
2018-08-16T01:56:16.453Z,66.80
2018-08-16T01:57:19.864Z,66.90
2018-08-16T01:58:23.460Z,66.90
2018-08-16T01:59:27.107Z,66.90
2018-08-16T02:00:30.740Z,67.70
2018-08-16T02:01:34.346Z,66.90
2018-08-16T02:02:38.170Z,67.50
2018-08-16T02:03:41.660Z,67.20
2018-08-16T02:04:45.027Z,67.30
2018-08-16T02:05:48.494Z,67.10
2018-08-16T02:06:52.505Z,67.10
2018-08-16T02:07:55.880Z,67.30
2018-08-16T02:08:59.555Z,67.40
2018-08-16T02:10:03.233Z,67.40
2018-08-16T02:11:06.762Z,67.50
2018-08-16T02:12:10.152Z,67.60
2018-08-16T02:13:13.499Z,67.60
2018-08-16T02:14:17.418Z,67.60
2018-08-16T02:15:20.955Z,67.70
2018-08-16T02:16:24.725Z,67.80
2018-08-16T02:17:28.342Z,67.90
2018-08-16T02:18:32.180Z,68.10
2018-08-16T02:19:35.749Z,68.10
2018-08-16T02:20:39.216Z,68.10
2018-08-16T02:21:42.769Z,68.20
2018-08-16T02:22:46.189Z,68.10
2018-08-16T02:23:49.529Z,68.10
2018-08-16T02:24:53.115Z,68.20
2018-08-16T02:25:56.822Z,68.30
2018-08-16T02:27:00.435Z,68.50
2018-08-16T02:28:04.441Z,68.60
2018-08-16T02:29:07.911Z,68.70
2018-08-16T02:30:11.657Z,68.80
2018-08-16T02:31:15.280Z,68.70
2018-08-16T02:32:18.734Z,68.80
2018-08-16T02:33:22.092Z,68.90
2018-08-16T02:34:25.612Z,68.90
2018-08-16T02:35:29.103Z,69.00
2018-08-16T02:36:32.683Z,69.00
2018-08-16T02:37:36.071Z,69.10
2018-08-16T02:38:39.497Z,68.90
2018-08-16T02:39:42.866Z,68.50
2018-08-16T02:40:46.396Z,68.90
2018-08-16T02:41:49.923Z,68.90
2018-08-16T02:42:53.644Z,68.80
2018-08-16T02:43:57.230Z,69.00
2018-08-16T02:45:00.625Z,68.90
2018-08-16T02:46:04.066Z,69.00
2018-08-16T02:47:07.530Z,69.10
2018-08-16T02:48:11.118Z,69.20
2018-08-16T02:49:14.650Z,69.30
2018-08-16T02:50:18.081Z,69.20
2018-08-16T02:51:21.762Z,69.20
2018-08-16T02:52:25.174Z,69.20
2018-08-16T02:53:28.567Z,69.40
2018-08-16T02:54:32.188Z,69.50
2018-08-16T02:55:35.593Z,69.60
2018-08-16T02:56:39.106Z,69.70
2018-08-16T02:57:43.161Z,69.60
2018-08-16T02:58:46.611Z,69.80
2018-08-16T02:59:50.390Z,70.50
2018-08-16T03:00:53.808Z,69.80
2018-08-16T03:01:57.487Z,69.90
2018-08-16T03:03:01.115Z,70.00
2018-08-16T03:04:04.585Z,69.80
2018-08-16T03:05:08.130Z,69.80
2018-08-16T03:06:11.550Z,69.90
2018-08-16T03:07:15.012Z,70.10
2018-08-16T03:08:18.388Z,70.00
2018-08-16T03:09:21.786Z,70.00
2018-08-16T03:10:25.163Z,70.00
2018-08-16T03:11:28.691Z,69.90
2018-08-16T03:12:32.250Z,69.80
2018-08-16T03:13:35.828Z,70.10
2018-08-16T03:14:40.421Z,70.20
2018-08-16T03:15:43.928Z,70.30
2018-08-16T03:16:47.342Z,70.40
2018-08-16T03:17:50.798Z,70.60
2018-08-16T03:18:54.164Z,70.70
2018-08-16T03:19:57.574Z,70.70
2018-08-16T03:21:01.140Z,70.80
2018-08-16T03:22:04.836Z,70.80
2018-08-16T03:23:08.543Z,70.90
2018-08-16T03:24:12.092Z,70.50
2018-08-16T03:25:15.417Z,71.00
2018-08-16T03:26:18.831Z,71.00
2018-08-16T03:27:22.223Z,71.10
2018-08-16T03:28:25.755Z,71.10
2018-08-16T03:29:29.100Z,71.10
2018-08-16T03:30:32.676Z,71.30
2018-08-16T03:31:36.093Z,71.40
2018-08-16T03:32:39.472Z,71.30
2018-08-16T03:33:43.048Z,71.40
2018-08-16T03:34:46.604Z,71.40
2018-08-16T03:35:50.175Z,71.40
2018-08-16T03:36:53.940Z,71.40
2018-08-16T03:37:57.392Z,71.40
2018-08-16T03:39:01.155Z,71.80
2018-08-16T03:40:06.174Z,72.20
2018-08-16T03:41:09.799Z,72.20
2018-08-16T03:42:13.170Z,72.10
2018-08-16T03:43:16.680Z,72.20
2018-08-16T03:44:20.166Z,72.40
2018-08-16T03:45:23.720Z,72.40
2018-08-16T03:46:27.012Z,72.40
2018-08-16T03:47:30.585Z,72.40
2018-08-16T03:48:33.883Z,72.40
2018-08-16T03:49:37.367Z,72.30
2018-08-16T03:50:40.750Z,72.20
2018-08-16T03:51:44.287Z,72.20
2018-08-16T03:52:47.842Z,72.30
2018-08-16T03:53:51.329Z,72.20
2018-08-16T03:54:55.522Z,72.30
2018-08-16T03:55:58.880Z,72.30
2018-08-16T03:57:02.597Z,72.10
2018-08-16T03:58:06.312Z,72.10
2018-08-16T03:59:09.730Z,72.10
2018-08-16T04:00:13.138Z,72.20
2018-08-16T04:01:16.758Z,72.00
2018-08-16T04:02:20.230Z,72.10
2018-08-16T04:03:23.757Z,72.10
2018-08-16T04:04:27.138Z,72.00
2018-08-16T04:05:30.457Z,72.00
2018-08-16T04:06:33.786Z,72.00
2018-08-16T04:07:37.305Z,71.90
2018-08-16T04:08:40.867Z,71.90
2018-08-16T04:09:44.482Z,71.80
2018-08-16T04:10:48.015Z,72.30
2018-08-16T04:11:51.422Z,71.80
2018-08-16T04:12:54.745Z,71.50
2018-08-16T04:13:58.046Z,71.40
2018-08-16T04:15:01.564Z,71.30
2018-08-16T04:16:05.112Z,71.20
2018-08-16T04:17:08.832Z,71.10
2018-08-16T04:18:12.180Z,71.70
2018-08-16T04:19:15.602Z,71.10
2018-08-16T04:20:18.951Z,71.10
2018-08-16T04:21:22.339Z,71.00
2018-08-16T04:22:25.957Z,71.00
2018-08-16T04:23:29.822Z,71.10
2018-08-16T04:24:33.258Z,71.30
2018-08-16T04:25:36.662Z,71.10
2018-08-16T04:26:40.120Z,71.00
2018-08-16T04:27:43.649Z,71.00
2018-08-16T04:28:47.123Z,70.90
2018-08-16T04:29:50.554Z,71.10
2018-08-16T04:30:54.021Z,71.10
2018-08-16T04:31:57.398Z,71.00
2018-08-16T04:33:00.727Z,71.10
2018-08-16T04:34:04.359Z,71.30
2018-08-16T04:35:07.852Z,71.00
2018-08-16T04:36:11.342Z,71.10
2018-08-16T04:37:14.875Z,71.70
2018-08-16T04:38:18.619Z,71.10
2018-08-16T04:39:22.373Z,71.10
2018-08-16T04:40:25.904Z,71.70
2018-08-16T04:41:29.236Z,71.10
2018-08-16T04:42:32.624Z,71.10
2018-08-16T04:43:36.247Z,71.10
2018-08-16T04:44:39.690Z,71.10
2018-08-16T04:45:43.059Z,71.20
2018-08-16T04:46:46.411Z,71.10
2018-08-16T04:47:49.820Z,71.10
2018-08-16T04:48:53.661Z,71.10
2018-08-16T04:49:56.943Z,71.10
2018-08-16T04:51:00.531Z,71.80
2018-08-16T04:52:04.117Z,71.20
2018-08-16T04:53:08.119Z,71.10
2018-08-16T04:54:11.919Z,71.00
2018-08-16T04:55:15.286Z,71.00
2018-08-16T04:56:18.705Z,71.00
2018-08-16T04:57:22.081Z,70.90
2018-08-16T04:58:25.619Z,71.00
2018-08-16T04:59:29.259Z,70.80
2018-08-16T05:00:32.713Z,70.70
2018-08-16T05:01:36.177Z,70.60
2018-08-16T05:02:39.577Z,70.50
2018-08-16T05:03:43.012Z,70.80
2018-08-16T05:04:46.324Z,70.30
2018-08-16T05:05:49.787Z,70.20
2018-08-16T05:06:53.420Z,70.20
2018-08-16T05:07:58.336Z,70.10
2018-08-16T05:09:03.105Z,70.30
2018-08-16T05:10:10.273Z,69.70
2018-08-16T05:11:15.029Z,69.80
2018-08-16T05:12:19.247Z,69.70
2018-08-16T05:13:24.117Z,69.70
2018-08-16T05:14:29.589Z,69.40
2018-08-16T05:15:35.500Z,69.40
2018-08-16T05:16:40.393Z,69.40
2018-08-16T05:17:43.839Z,69.10
2018-08-16T05:18:47.410Z,68.80
2018-08-16T05:19:51.245Z,68.60
2018-08-16T05:20:54.802Z,68.60
2018-08-16T05:21:58.202Z,69.10
2018-08-16T05:23:01.576Z,68.90
2018-08-16T05:24:05.256Z,68.20
2018-08-16T05:25:09.006Z,68.00
2018-08-16T05:26:12.532Z,67.90
2018-08-16T05:27:16.343Z,67.80
2018-08-16T05:28:19.937Z,68.10
2018-08-16T05:29:23.597Z,67.90
2018-08-16T05:30:27.019Z,67.70
2018-08-16T05:31:30.459Z,67.50
2018-08-16T05:32:33.918Z,67.20
2018-08-16T05:33:37.635Z,67.20
2018-08-16T05:34:41.288Z,67.30
2018-08-16T05:35:45.174Z,67.20
2018-08-16T05:36:48.781Z,67.00
2018-08-16T05:37:53.211Z,66.80
2018-08-16T05:38:57.717Z,66.80
2018-08-16T05:40:03.084Z,66.70
2018-08-16T05:41:07.468Z,66.60
2018-08-16T05:42:11.888Z,66.60
2018-08-16T05:43:16.030Z,66.60
2018-08-16T05:44:19.570Z,66.40
2018-08-16T05:45:23.358Z,66.30
2018-08-16T05:46:26.894Z,66.30
2018-08-16T05:47:30.455Z,66.20
2018-08-16T05:48:33.851Z,66.20
2018-08-16T05:49:37.402Z,66.10
2018-08-16T05:50:40.905Z,66.00
2018-08-16T05:51:44.426Z,66.00
2018-08-16T05:52:47.919Z,65.90
2018-08-16T05:53:51.219Z,65.70
2018-08-16T05:54:54.622Z,65.70
2018-08-16T05:55:57.920Z,65.50
2018-08-16T05:57:01.719Z,65.50
2018-08-16T05:58:05.676Z,65.50
2018-08-16T05:59:09.853Z,65.20
2018-08-16T06:00:14.382Z,64.80
2018-08-16T06:01:17.929Z,64.80
2018-08-16T06:02:21.517Z,65.30
2018-08-16T06:03:25.022Z,64.60
2018-08-16T06:04:28.444Z,64.60
2018-08-16T06:05:31.936Z,64.40
2018-08-16T06:06:35.551Z,64.30
2018-08-16T06:07:39.315Z,64.00
2018-08-16T06:08:43.053Z,64.00
2018-08-16T06:09:46.523Z,63.90
2018-08-16T06:10:50.011Z,63.80
2018-08-16T06:11:53.628Z,63.90
2018-08-16T06:12:57.159Z,63.70
2018-08-16T06:14:00.509Z,63.50
2018-08-16T06:15:05.480Z,63.40
2018-08-16T06:16:09.227Z,63.20
2018-08-16T06:17:13.208Z,63.00
2018-08-16T06:18:16.868Z,63.00
2018-08-16T06:19:20.763Z,63.20
2018-08-16T06:20:24.219Z,63.10
2018-08-16T06:21:27.936Z,62.90
2018-08-16T06:22:31.335Z,62.50
2018-08-16T06:23:35.039Z,62.40
2018-08-16T06:24:38.600Z,62.40
2018-08-16T06:25:42.054Z,62.00
2018-08-16T06:26:45.592Z,62.20
2018-08-16T06:27:49.211Z,61.90
2018-08-16T06:28:52.887Z,61.70
2018-08-16T06:29:56.908Z,61.60
2018-08-16T06:31:00.803Z,61.40
2018-08-16T06:32:04.658Z,61.30
2018-08-16T06:33:08.494Z,61.50
2018-08-16T06:34:12.337Z,61.30
2018-08-16T06:35:16.419Z,61.30
2018-08-16T06:36:20.286Z,61.10
2018-08-16T06:37:30.230Z,61.10
2018-08-16T06:38:33.801Z,61.10
2018-08-16T06:39:37.486Z,61.00
2018-08-16T06:40:41.160Z,61.10
2018-08-16T06:41:44.750Z,61.00
2018-08-16T06:42:48.639Z,60.70
2018-08-16T06:43:52.138Z,60.70
2018-08-16T06:44:55.837Z,60.80
2018-08-16T06:45:59.633Z,60.80
2018-08-16T06:47:03.746Z,60.80
2018-08-16T06:48:07.773Z,61.00
2018-08-16T06:49:11.225Z,60.90
2018-08-16T06:50:14.808Z,60.90
2018-08-16T06:51:18.422Z,60.90
2018-08-16T06:52:22.104Z,60.90
2018-08-16T06:53:25.693Z,60.80
2018-08-16T06:54:29.258Z,60.90
2018-08-16T06:55:32.884Z,60.90
2018-08-16T06:56:36.466Z,60.50
2018-08-16T06:57:40.458Z,60.40
2018-08-16T06:58:44.058Z,60.50
2018-08-16T06:59:47.689Z,60.50
2018-08-16T07:00:51.225Z,60.50
2018-08-16T07:01:54.599Z,60.20
2018-08-16T07:02:58.090Z,59.80
2018-08-16T07:04:01.751Z,59.90
2018-08-16T07:05:07.504Z,59.80
2018-08-16T07:06:11.229Z,59.90
2018-08-16T07:07:15.068Z,59.80
2018-08-16T07:08:18.637Z,59.60
2018-08-16T07:09:22.333Z,59.50
2018-08-16T07:10:25.884Z,59.70
2018-08-16T07:11:29.385Z,59.60
2018-08-16T07:12:33.693Z,59.30
2018-08-16T07:13:37.404Z,59.20
2018-08-16T07:14:41.024Z,59.80
2018-08-16T07:15:44.770Z,59.20
2018-08-16T07:16:49.227Z,58.90
2018-08-16T07:17:53.063Z,58.90
2018-08-16T07:18:56.727Z,58.50
2018-08-16T07:20:00.372Z,58.50
2018-08-16T07:21:04.180Z,58.80
2018-08-16T07:22:07.837Z,59.20
2018-08-16T07:23:11.244Z,59.50
2018-08-16T07:24:14.807Z,59.50
2018-08-16T07:25:18.672Z,59.90
2018-08-16T07:26:22.233Z,59.70
2018-08-16T07:27:26.088Z,59.30
2018-08-16T07:28:29.581Z,59.50
2018-08-16T07:29:32.904Z,59.50
2018-08-16T07:30:36.267Z,59.50
2018-08-16T07:31:39.671Z,59.40
2018-08-16T07:32:43.336Z,59.50
2018-08-16T07:33:46.797Z,60.00
2018-08-16T07:34:50.380Z,59.80
2018-08-16T07:35:53.856Z,59.60
2018-08-16T07:36:57.543Z,59.70
2018-08-16T07:38:00.980Z,59.40
2018-08-16T07:39:08.808Z,59.70
2018-08-16T07:40:12.200Z,59.50
2018-08-16T07:41:15.612Z,59.60
2018-08-16T07:42:19.303Z,59.40
2018-08-16T07:43:22.711Z,59.40
2018-08-16T07:44:26.322Z,59.20
2018-08-16T07:45:29.961Z,59.40
2018-08-16T07:46:34.257Z,59.40
2018-08-16T07:47:37.958Z,59.30
2018-08-16T07:48:41.842Z,58.90
2018-08-16T07:49:45.355Z,59.00
2018-08-16T07:50:48.917Z,59.30
2018-08-16T07:51:52.528Z,59.30
2018-08-16T07:52:56.108Z,58.90
2018-08-16T07:53:59.948Z,58.90
2018-08-16T07:55:04.016Z,58.70
2018-08-16T07:56:07.744Z,58.90
2018-08-16T07:57:11.471Z,58.40
2018-08-16T07:58:15.247Z,58.20
2018-08-16T07:59:19.059Z,58.50
2018-08-16T08:00:22.743Z,58.80
2018-08-16T08:01:26.216Z,58.90
2018-08-16T08:02:29.884Z,58.70
2018-08-16T08:03:33.391Z,58.70
2018-08-16T08:04:37.231Z,58.30
2018-08-16T08:05:40.777Z,58.20
2018-08-16T08:06:44.816Z,58.40
2018-08-16T08:07:48.350Z,58.00
2018-08-16T08:08:52.035Z,58.10
2018-08-16T08:09:55.624Z,58.40
2018-08-16T08:10:59.531Z,57.60
2018-08-16T08:12:03.271Z,57.60
2018-08-16T08:13:07.043Z,57.40
2018-08-16T08:14:10.683Z,57.40
2018-08-16T08:15:15.479Z,57.10
2018-08-16T08:16:19.249Z,57.80
2018-08-16T08:17:23.313Z,58.10
2018-08-16T08:18:28.007Z,58.10
2018-08-16T08:19:33.854Z,58.00
2018-08-16T08:20:37.846Z,58.10
2018-08-16T08:21:41.561Z,57.70
2018-08-16T08:22:45.415Z,58.00
2018-08-16T08:23:49.023Z,57.60
2018-08-16T08:24:52.595Z,57.60
2018-08-16T08:25:56.090Z,57.80
2018-08-16T08:26:59.734Z,58.00
2018-08-16T08:28:02.615Z,57.30
2018-08-16T08:29:05.487Z,57.60
2018-08-16T08:30:13.268Z,57.80
2018-08-16T08:31:16.894Z,58.10
2018-08-16T08:32:20.708Z,57.80
2018-08-16T08:33:23.755Z,57.40
2018-08-16T08:34:27.213Z,57.20
2018-08-16T08:35:30.854Z,57.10
2018-08-16T08:36:51.562Z,57.20
2018-08-16T08:38:10.583Z,57.10
2018-08-16T08:39:15.758Z,57.60
2018-08-16T08:40:19.545Z,56.70
2018-08-16T08:41:23.363Z,57.50
2018-08-16T08:42:27.154Z,57.80
2018-08-16T08:43:47.923Z,57.70
2018-08-16T08:44:51.398Z,57.20
2018-08-16T08:45:55.113Z,57.10
2018-08-16T08:46:58.724Z,57.60
2018-08-16T08:48:02.264Z,57.30
2018-08-16T08:49:05.872Z,57.80
2018-08-16T08:50:11.721Z,57.90
2018-08-16T08:51:15.343Z,57.60
2018-08-16T08:52:19.214Z,57.60
2018-08-16T08:54:50.516Z,57.60
2018-08-16T08:56:11.033Z,58.00
2018-08-16T08:57:32.236Z,56.80
2018-08-16T08:58:51.430Z,57.20
2018-08-16T08:59:55.008Z,56.90
2018-08-16T09:00:58.390Z,57.40
2018-08-16T09:02:01.861Z,56.80
2018-08-16T09:03:06.305Z,56.60
2018-08-16T09:04:09.896Z,56.80
2018-08-16T09:05:13.633Z,56.60
2018-08-16T09:06:17.337Z,56.40
2018-08-16T09:07:21.714Z,56.10
2018-08-16T09:08:25.181Z,56.30
2018-08-16T09:09:29.027Z,56.40
2018-08-16T09:11:02.706Z,56.10
2018-08-16T09:13:27.074Z,56.00
2018-08-16T09:15:47.059Z,56.00
2018-08-16T09:16:50.619Z,55.70
2018-08-16T09:17:54.673Z,55.20
2018-08-16T09:18:58.799Z,55.10
2018-08-16T09:20:02.510Z,55.00
2018-08-16T09:21:06.896Z,55.00
2018-08-16T09:22:10.604Z,55.20
2018-08-16T09:23:14.344Z,55.00
2018-08-16T09:24:19.243Z,55.00
2018-08-16T09:25:23.075Z,54.30
2018-08-16T09:26:33.591Z,54.70
2018-08-16T09:27:37.064Z,54.00
2018-08-16T09:28:41.211Z,53.30
2018-08-16T09:30:28.101Z,53.50
2018-08-16T09:31:48.621Z,53.30
2018-08-16T09:33:09.071Z,53.40
2018-08-16T09:34:22.219Z,53.50
2018-08-16T09:35:27.020Z,53.90
2018-08-16T09:36:31.696Z,53.70
2018-08-16T09:37:36.949Z,53.10
2018-08-16T09:38:40.556Z,52.90
2018-08-16T09:39:44.416Z,52.50
2018-08-16T09:40:48.800Z,52.80
2018-08-16T09:41:52.745Z,52.40
2018-08-16T09:42:56.596Z,52.80
2018-08-16T09:44:00.764Z,52.70
2018-08-16T09:47:25.464Z,52.00
2018-08-16T09:48:42.982Z,52.20
2018-08-16T09:49:48.982Z,52.60
2018-08-16T09:50:52.639Z,52.80
2018-08-16T09:51:57.640Z,52.20
2018-08-16T09:53:01.322Z,52.00
2018-08-16T09:54:05.779Z,51.60
2018-08-16T09:55:09.354Z,51.70
2018-08-16T09:56:12.924Z,52.60
2018-08-16T09:57:17.759Z,52.50
2018-08-16T09:58:21.319Z,51.90
2018-08-16T09:59:25.037Z,52.30
2018-08-16T10:00:34.236Z,51.50
2018-08-16T10:01:38.331Z,51.20
2018-08-16T10:02:41.825Z,51.10
2018-08-16T10:03:45.320Z,50.60
2018-08-16T10:04:48.872Z,50.50
2018-08-16T10:05:52.699Z,51.00
2018-08-16T10:06:56.734Z,50.40
2018-08-16T10:08:00.263Z,50.90
2018-08-16T10:09:10.776Z,50.60
2018-08-16T10:10:14.364Z,50.60
2018-08-16T10:11:17.916Z,50.40
2018-08-16T10:12:21.400Z,49.50
2018-08-16T10:13:24.913Z,49.00
2018-08-16T10:14:28.521Z,48.60
2018-08-16T10:15:32.053Z,47.90
2018-08-16T10:16:36.343Z,47.70
2018-08-16T10:17:40.001Z,47.80
2018-08-16T10:18:43.541Z,48.70
2018-08-16T10:19:47.093Z,48.10
2018-08-16T10:20:50.893Z,47.60
2018-08-16T10:21:54.559Z,47.10
2018-08-16T10:22:57.989Z,46.80
2018-08-16T10:24:02.096Z,47.30
2018-08-16T10:25:05.619Z,47.20
2018-08-16T10:26:09.407Z,47.00
2018-08-16T10:27:13.248Z,47.00
2018-08-16T10:28:16.753Z,46.60
2018-08-16T10:29:20.268Z,47.00
2018-08-16T10:30:23.719Z,46.60
2018-08-16T10:31:28.380Z,46.90
2018-08-16T10:32:31.814Z,46.90
2018-08-16T10:33:35.426Z,47.00
2018-08-16T10:34:39.218Z,46.80
2018-08-16T10:35:43.223Z,46.80
2018-08-16T10:36:46.804Z,46.50
2018-08-16T10:37:50.189Z,46.90
2018-08-16T10:38:53.831Z,46.80
2018-08-16T10:39:57.453Z,46.70
2018-08-16T10:41:01.179Z,46.30
2018-08-16T10:42:05.068Z,46.10
2018-08-16T10:43:08.792Z,45.70
2018-08-16T10:44:12.968Z,46.30
2018-08-16T10:45:16.595Z,45.50
2018-08-16T10:46:20.251Z,45.50
2018-08-16T10:47:24.864Z,45.20
2018-08-16T10:48:28.527Z,45.70
2018-08-16T10:49:31.999Z,45.90
2018-08-16T10:50:35.658Z,45.90
2018-08-16T10:51:40.394Z,46.00
2018-08-16T10:52:46.454Z,45.70
2018-08-16T10:53:50.000Z,45.80
2018-08-16T10:54:54.179Z,45.30
2018-08-16T10:55:58.652Z,45.40
2018-08-16T10:57:02.346Z,45.80
2018-08-16T10:58:06.215Z,45.20
2018-08-16T10:59:10.088Z,45.70
2018-08-16T11:00:13.889Z,45.70
2018-08-16T11:01:17.787Z,45.60
2018-08-16T11:02:21.139Z,45.50
2018-08-16T11:03:25.174Z,45.50
2018-08-16T11:04:28.772Z,45.50
2018-08-16T11:05:32.355Z,45.30
2018-08-16T11:06:36.072Z,45.60
2018-08-16T11:07:39.965Z,46.80
2018-08-16T11:08:43.722Z,45.00
2018-08-16T11:09:47.559Z,44.40
2018-08-16T11:10:51.948Z,44.50
2018-08-16T11:11:55.355Z,44.40
2018-08-16T11:12:58.894Z,44.00
2018-08-16T11:14:02.675Z,44.40
2018-08-16T11:15:06.984Z,44.20
2018-08-16T11:16:10.599Z,44.40
2018-08-16T11:17:15.152Z,44.40
2018-08-16T11:18:18.747Z,45.80
2018-08-16T11:19:22.437Z,45.20
2018-08-16T11:20:26.350Z,45.40
2018-08-16T11:21:30.124Z,45.60
2018-08-16T11:22:33.605Z,43.90
2018-08-16T11:23:39.178Z,44.30
2018-08-16T11:24:42.573Z,44.70
2018-08-16T11:25:46.226Z,45.60
2018-08-16T11:26:50.177Z,45.30
2018-08-16T11:27:54.121Z,45.00
2018-08-16T11:28:57.596Z,44.90
2018-08-16T11:30:01.055Z,45.10
2018-08-16T11:31:04.717Z,45.90
2018-08-16T11:32:08.289Z,44.70
2018-08-16T11:33:12.551Z,44.80
2018-08-16T11:34:16.009Z,44.50
2018-08-16T11:35:19.940Z,44.20
2018-08-16T11:36:24.053Z,44.20
2018-08-16T11:37:28.850Z,43.50
2018-08-16T11:38:35.875Z,43.80
2018-08-16T11:39:40.177Z,43.90
2018-08-16T11:40:43.762Z,43.90
2018-08-16T11:41:47.196Z,43.90
2018-08-16T11:42:52.318Z,43.80
2018-08-16T11:43:57.172Z,44.60
2018-08-16T11:45:02.105Z,44.40
2018-08-16T11:46:06.388Z,44.30
2018-08-16T11:47:10.409Z,44.10
2018-08-16T11:48:24.575Z,44.00
2018-08-16T11:49:28.895Z,44.40
2018-08-16T11:50:33.095Z,44.50
2018-08-16T11:51:38.004Z,44.20
2018-08-16T11:52:42.087Z,44.10
2018-08-16T11:53:46.633Z,44.50
2018-08-16T11:54:50.436Z,45.10
2018-08-16T11:55:59.059Z,45.40
2018-08-16T11:57:03.912Z,44.90
2018-08-16T11:58:08.665Z,44.70
2018-08-16T11:59:12.359Z,45.60
2018-08-16T12:00:15.957Z,45.40
2018-08-16T12:01:19.961Z,45.60
2018-08-16T12:02:27.132Z,45.30
2018-08-16T12:03:31.531Z,45.90
2018-08-16T12:04:37.239Z,45.50
2018-08-16T12:05:40.931Z,44.70
2018-08-16T12:06:44.759Z,44.30
2018-08-16T12:07:49.353Z,44.10
2018-08-16T12:08:56.652Z,43.70
2018-08-16T12:10:00.324Z,43.40
2018-08-16T12:11:04.333Z,43.60
2018-08-16T12:12:08.579Z,43.40
2018-08-16T12:13:12.919Z,43.60
2018-08-16T12:14:16.655Z,43.60
2018-08-16T12:15:20.236Z,43.40
2018-08-16T12:16:23.713Z,43.40
2018-08-16T12:17:27.286Z,43.30
2018-08-16T12:18:31.123Z,43.60
2018-08-16T12:19:34.621Z,43.70
2018-08-16T12:20:38.399Z,43.00
2018-08-16T12:21:42.074Z,42.90
2018-08-16T12:22:45.445Z,42.40
2018-08-16T12:23:49.093Z,42.90
2018-08-16T12:24:52.709Z,42.80
2018-08-16T12:25:56.292Z,42.80
2018-08-16T12:26:59.997Z,43.20
2018-08-16T12:28:04.854Z,44.00
2018-08-16T12:29:08.502Z,43.80
2018-08-16T12:30:12.077Z,42.90
2018-08-16T12:31:15.778Z,42.90
2018-08-16T12:32:19.665Z,43.00
2018-08-16T12:33:23.181Z,42.30
2018-08-16T12:34:26.932Z,42.40
2018-08-16T12:35:30.693Z,42.70
2018-08-16T12:36:34.497Z,42.30
2018-08-16T12:37:38.040Z,42.00
2018-08-16T12:38:41.620Z,41.20
2018-08-16T12:39:45.523Z,41.80
2018-08-16T12:40:50.198Z,41.40
2018-08-16T12:41:53.121Z,41.80
2018-08-16T12:42:56.687Z,41.90
2018-08-16T12:44:00.406Z,42.10
2018-08-16T12:45:05.094Z,42.40
2018-08-16T12:46:15.200Z,41.70
2018-08-16T12:47:19.192Z,41.20
2018-08-16T12:48:22.684Z,40.50
2018-08-16T12:49:26.272Z,40.50
2018-08-16T12:50:29.997Z,40.60
2018-08-16T12:51:33.554Z,40.10
2018-08-16T12:52:37.254Z,40.20
2018-08-16T12:53:40.644Z,40.80
2018-08-16T12:54:44.135Z,40.30
2018-08-16T12:55:47.562Z,40.40
2018-08-16T12:56:51.225Z,40.60
2018-08-16T12:57:54.747Z,41.00
2018-08-16T12:58:58.300Z,42.00
2018-08-16T13:00:02.629Z,41.30
2018-08-16T13:01:06.384Z,40.70
2018-08-16T13:02:15.308Z,40.50
2018-08-16T13:03:19.182Z,40.50
2018-08-16T13:04:23.798Z,40.70
2018-08-16T13:05:27.486Z,41.10
2018-08-16T13:06:31.852Z,40.70
2018-08-16T13:07:35.786Z,40.90
2018-08-16T13:08:39.279Z,40.80
2018-08-16T13:09:42.903Z,41.30
2018-08-16T13:10:46.800Z,40.90
2018-08-16T13:11:50.499Z,41.10
2018-08-16T13:12:54.183Z,40.60
2018-08-16T13:13:57.926Z,40.10
2018-08-16T13:15:05.343Z,40.70
2018-08-16T13:16:09.259Z,40.90
2018-08-16T13:17:14.081Z,40.20
2018-08-16T13:18:17.628Z,40.30
2018-08-16T13:19:21.296Z,40.30
2018-08-16T13:20:24.779Z,39.50
2018-08-16T13:21:28.639Z,40.20
2018-08-16T13:22:32.273Z,39.60
2018-08-16T13:23:37.547Z,39.30
2018-08-16T13:24:41.142Z,38.80
2018-08-16T13:25:45.242Z,39.10
2018-08-16T13:26:48.832Z,39.80
2018-08-16T13:27:52.924Z,39.50
2018-08-16T13:28:56.954Z,39.30
2018-08-16T13:30:00.863Z,39.50
2018-08-16T13:31:04.570Z,39.20
2018-08-16T13:32:08.447Z,39.70
2018-08-16T13:33:14.269Z,39.60
2018-08-16T13:34:18.295Z,39.50
2018-08-16T13:35:21.913Z,39.10
2018-08-16T13:36:25.527Z,38.90
2018-08-16T13:37:30.198Z,39.30
2018-08-16T13:38:33.872Z,38.90
2018-08-16T13:39:37.687Z,38.90
2018-08-16T13:40:41.237Z,38.90
2018-08-16T13:41:44.814Z,39.10
2018-08-16T13:42:48.439Z,39.00
2018-08-16T13:43:52.404Z,39.60
2018-08-16T13:44:56.065Z,39.40
2018-08-16T13:45:59.571Z,38.90
2018-08-16T13:47:03.327Z,38.60
2018-08-16T13:48:07.933Z,39.00
2018-08-16T13:49:11.415Z,38.50
2018-08-16T13:50:14.970Z,38.80
2018-08-16T13:51:18.500Z,38.60
2018-08-16T13:52:22.358Z,38.50